Time;durP1;ratioP1;P1;durP2;ratioP2;P2;SDS_P1;SDS_P2;PMS_P1;PMS_P2;Temp;Humidity;BMP_temperature;BMP_pressure;BME280_temperature;BME280_humidity;BME280_pressure;Samples;Min_cycle;Max_cycle;Signal;HPM_P1;HPM_P2
2023/07/01 00:00:10;;;;;;;3.30;1.60;;;;;;;18.42;52.33;100664.06;4897957;29;20457;-94
2023/07/01 00:02:36;;;;;;;4.85;1.80;;;;;;;18.42;52.96;100661.38;4898237;29;20025;-95
2023/07/01 00:05:06;;;;;;;7.25;2.10;;;;;;;18.40;53.02;100652.72;4897626;29;20136;-94
2023/07/01 00:07:32;;;;;;;6.80;1.70;;;;;;;18.44;53.05;100663.78;4892989;29;20029;-93
2023/07/01 00:09:57;;;;;;;4.07;1.80;;;;;;;18.42;52.84;100650.50;4897362;29;20317;-93
2023/07/01 00:12:22;;;;;;;6.17;1.73;;;;;;;18.42;53.43;100645.09;4898782;29;20115;-94
2023/07/01 00:14:48;;;;;;;4.43;1.90;;;;;;;18.43;53.74;100643.19;4897361;29;20035;-93
2023/07/01 00:17:13;;;;;;;5.70;1.93;;;;;;;18.37;53.51;100630.88;4898738;29;20945;-93
2023/07/01 00:19:38;;;;;;;3.87;1.87;;;;;;;18.33;53.81;100632.63;4898088;29;20053;-94
2023/07/01 00:22:06;;;;;;;9.00;1.80;;;;;;;18.28;54.45;100623.50;4898131;29;20064;-94
2023/07/01 00:24:31;;;;;;;3.50;1.70;;;;;;;18.31;54.54;100631.00;4897507;29;20091;-94
2023/07/01 00:26:57;;;;;;;3.10;2.00;;;;;;;18.30;54.39;100628.63;4900135;29;20308;-93
2023/07/01 00:29:22;;;;;;;5.57;1.90;;;;;;;18.23;54.91;100618.25;4899084;29;20072;-95
2023/07/01 00:31:47;;;;;;;4.23;1.87;;;;;;;18.26;55.85;100631.16;4897812;29;20051;-94
2023/07/01 00:34:12;;;;;;;4.90;2.10;;;;;;;18.25;54.98;100617.91;4897831;29;20024;-94
2023/07/01 00:36:38;;;;;;;2.73;1.73;;;;;;;18.22;55.47;100610.41;4897058;29;20144;-93
2023/07/01 00:39:03;;;;;;;4.38;1.80;;;;;;;18.22;56.64;100611.22;4902449;29;20036;-93
2023/07/01 00:41:29;;;;;;;6.37;1.90;;;;;;;18.23;56.68;100610.09;4897636;29;20046;-92
2023/07/01 00:43:54;;;;;;;5.03;1.83;;;;;;;18.22;56.59;100605.81;4896812;29;20132;-95
2023/07/01 00:46:21;;;;;;;3.63;1.83;;;;;;;18.22;57.16;100597.66;4897075;29;20044;-95
2023/07/01 00:48:47;;;;;;;3.72;1.77;;;;;;;18.19;57.65;100594.75;4896807;29;20044;-94
2023/07/01 00:51:13;;;;;;;6.10;2.00;;;;;;;18.17;57.95;100595.88;4897721;29;20709;-93
2023/07/01 00:53:39;;;;;;;5.70;2.10;;;;;;;18.20;58.13;100582.81;4916011;29;20296;-96
2023/07/01 00:56:06;;;;;;;4.53;1.48;;;;;;;18.08;57.90;100567.97;4899632;29;20110;-94
2023/07/01 00:58:32;;;;;;;5.88;1.90;;;;;;;18.10;58.57;100568.44;4902774;29;20016;-95
2023/07/01 01:01:00;;;;;;;5.85;1.90;;;;;;;18.15;58.78;100578.34;4915129;29;20068;-94
2023/07/01 01:03:42;;;;;;;6.15;1.83;;;;;;;18.19;58.89;100590.16;4897141;29;20031;-94
2023/07/01 01:06:36;;;;;;;3.97;1.85;;;;;;;18.14;59.27;100580.25;4897317;29;20041;-94
2023/07/01 01:09:10;;;;;;;4.97;2.20;;;;;;;18.09;60.55;100580.41;4897373;29;20040;-94
2023/07/01 01:11:40;;;;;;;5.60;2.07;;;;;;;18.00;61.31;100572.25;4898329;29;20324;-94
2023/07/01 01:14:08;;;;;;;6.90;1.98;;;;;;;18.01;61.37;100573.84;4896635;29;20068;-94
2023/07/01 01:16:35;;;;;;;5.68;2.05;;;;;;;17.98;61.74;100557.41;4896424;29;20037;-95
2023/07/01 01:19:04;;;;;;;2.97;1.88;;;;;;;18.02;62.16;100566.50;4897307;29;20056;-93
2023/07/01 01:21:30;;;;;;;5.75;2.00;;;;;;;18.01;61.96;100557.56;4898251;29;20089;-93
2023/07/01 01:24:06;;;;;;;3.90;2.08;;;;;;;18.03;62.70;100565.38;4899209;29;20056;-94
2023/07/01 01:26:39;;;;;;;3.30;1.70;;;;;;;17.97;62.55;100543.00;4897259;29;20037;-93
2023/07/01 01:29:06;;;;;;;8.67;2.73;;;;;;;17.98;63.84;100546.56;4900292;29;20043;-94
2023/07/01 01:31:33;;;;;;;6.80;2.00;;;;;;;17.98;63.95;100538.44;4899311;29;20281;-95
2023/07/01 01:33:58;;;;;;;6.53;2.10;;;;;;;18.04;64.20;100550.72;4900018;29;20072;-93
2023/07/01 01:36:41;;;;;;;7.20;1.92;;;;;;;18.04;64.26;100550.72;4913332;29;20036;-93
2023/07/01 01:39:10;;;;;;;5.10;2.13;;;;;;;18.03;65.30;100543.69;4904238;29;20020;-94
2023/07/01 01:41:46;;;;;;;5.70;2.20;;;;;;;18.03;65.31;100542.91;4901456;29;20028;-93
2023/07/01 01:44:19;;;;;;;8.48;2.30;;;;;;;18.00;65.97;100539.72;4902189;29;20037;-93
2023/07/01 01:46:45;;;;;;;5.57;2.80;;;;;;;17.92;67.22;100529.59;4898899;29;20033;-95
2023/07/01 01:49:12;;;;;;;3.93;1.93;;;;;;;17.94;68.86;100535.50;4901138;29;20041;-94
2023/07/01 01:51:40;;;;;;;5.30;2.22;;;;;;;17.93;70.46;100533.91;4899374;29;20040;-93
2023/07/01 01:54:08;;;;;;;4.85;1.90;;;;;;;17.92;70.37;100534.25;4900651;29;20039;-94
2023/07/01 01:56:35;;;;;;;4.90;1.75;;;;;;;17.90;70.36;100531.81;4899355;29;20088;-93
2023/07/01 01:59:00;;;;;;;5.05;2.00;;;;;;;17.85;71.43;100526.56;4899973;29;20029;-94
2023/07/01 02:01:26;;;;;;;5.33;2.20;;;;;;;17.78;71.40;100510.78;4899363;29;20033;-94
2023/07/01 02:03:51;;;;;;;5.95;2.05;;;;;;;17.83;72.39;100520.66;4899187;29;20028;-95
2023/07/01 02:06:17;;;;;;;3.80;1.97;;;;;;;17.82;72.98;100517.13;4898602;29;20029;-95
2023/07/01 02:08:42;;;;;;;4.20;2.20;;;;;;;17.76;73.33;100513.00;4899019;29;20080;-94
2023/07/01 02:11:07;;;;;;;3.80;2.00;;;;;;;17.76;72.74;100506.75;4898958;29;20065;-95
2023/07/01 02:13:33;;;;;;;3.10;1.80;;;;;;;17.81;74.01;100514.75;4915176;29;20317;-94
2023/07/01 02:15:59;;;;;;;3.78;1.88;;;;;;;17.81;74.06;100514.75;4904858;29;20414;-94
2023/07/01 02:18:24;;;;;;;7.23;2.10;;;;;;;17.77;74.55;100511.06;4900195;29;20053;-93
2023/07/01 02:20:49;;;;;;;6.27;2.20;;;;;;;17.80;74.90;100511.22;4920671;29;20037;-95
2023/07/01 02:23:15;;;;;;;7.70;2.50;;;;;;;17.72;74.79;100501.19;4900248;29;20381;-94
2023/07/01 02:25:41;;;;;;;8.13;1.93;;;;;;;17.74;75.57;100498.16;4898021;29;20032;-94
2023/07/01 02:28:07;;;;;;;4.90;2.30;;;;;;;17.73;76.21;100501.97;4899943;29;20037;-94
2023/07/01 02:30:34;;;;;;;6.63;2.03;;;;;;;17.55;76.05;100477.53;4898964;29;20038;-95
2023/07/01 02:32:59;;;;;;;5.85;2.35;;;;;;;17.67;77.27;100487.78;4899199;29;20480;-95
2023/07/01 02:35:25;;;;;;;5.75;2.30;;;;;;;17.68;79.19;100501.03;4898374;29;20067;-93
2023/07/01 02:37:50;;;;;;;4.30;1.90;;;;;;;17.60;82.74;100498.28;4899036;29;20028;-94
2023/07/01 02:40:15;;;;;;;7.50;2.20;;;;;;;17.53;87.15;100485.97;4898699;29;20042;-95
2023/07/01 02:42:41;;;;;;;6.80;2.00;;;;;;;17.45;87.94;100475.13;4899508;29;20021;-95
2023/07/01 02:45:07;;;;;;;4.90;1.80;;;;;;;17.40;91.40;100479.56;4898997;29;20453;-94
2023/07/01 02:47:32;;;;;;;3.78;1.90;;;;;;;17.28;93.16;100465.00;4897865;29;20029;-95
2023/07/01 02:49:57;;;;;;;6.50;1.80;;;;;;;17.21;93.86;100465.44;4898205;29;20398;-93
2023/07/01 02:52:23;;;;;;;3.93;1.80;;;;;;;17.19;93.71;100473.88;4898891;29;20560;-94
2023/07/01 02:54:49;;;;;;;6.72;1.90;;;;;;;17.23;94.68;100476.75;4898572;29;20028;-94
2023/07/01 02:57:14;;;;;;;4.35;2.08;;;;;;;17.14;95.22;100459.69;4898022;29;20035;-93
2023/07/01 02:59:39;;;;;;;6.53;1.80;;;;;;;17.14;95.92;100467.81;4897683;29;20084;-93
2023/07/01 03:02:05;;;;;;;5.13;1.70;;;;;;;17.07;98.84;100469.06;4898970;29;20052;-95
2023/07/01 03:04:32;;;;;;;4.28;1.67;;;;;;;17.06;99.88;100474.78;4898031;29;20051;-94
2023/07/01 03:06:58;;;;;;;5.90;1.80;;;;;;;17.12;98.39;100472.75;4897438;29;20029;-95
2023/07/01 03:09:23;;;;;;;6.30;1.80;;;;;;;17.09;97.78;100469.53;4898016;29;20092;-95
2023/07/01 03:11:49;;;;;;;7.20;2.10;;;;;;;17.00;100.00;100457.84;4898711;29;20021;-94
2023/07/01 03:14:14;;;;;;;3.77;1.73;;;;;;;16.97;100.00;100472.03;4897913;29;20052;-96
2023/07/01 03:16:42;;;;;;;4.00;1.80;;;;;;;16.80;100.00;100441.00;4897738;29;20280;-96
2023/07/01 03:19:08;;;;;;;5.22;1.65;;;;;;;16.87;100.00;100456.81;4897848;29;20032;-93
2023/07/01 03:21:36;;;;;;;3.03;1.70;;;;;;;16.89;100.00;100460.00;4897856;29;20084;-95
2023/07/01 03:24:01;;;;;;;3.20;1.70;;;;;;;16.77;100.00;100435.41;4897876;29;20028;-94
2023/07/01 03:26:27;;;;;;;7.17;2.03;;;;;;;16.78;100.00;100454.06;4897336;29;20459;-95
2023/07/01 03:28:53;;;;;;;7.00;1.70;;;;;;;16.71;100.00;100444.75;4879843;29;20339;-95
2023/07/01 03:31:19;;;;;;;2.75;1.83;;;;;;;16.62;100.00;100439.28;4901601;29;20029;-94
2023/07/01 03:33:45;;;;;;;5.75;2.25;;;;;;;16.63;100.00;100435.47;4911087;29;20036;-93
2023/07/01 03:36:10;;;;;;;6.50;1.90;;;;;;;16.69;100.00;100436.19;4902146;29;20477;-94
2023/07/01 03:38:36;;;;;;;2.83;1.97;;;;;;;16.61;100.00;100424.19;4907790;29;20024;-94
2023/07/01 03:41:01;;;;;;;3.03;2.07;;;;;;;16.61;100.00;100429.59;4920386;29;20047;-94
2023/07/01 03:43:27;;;;;;;3.37;1.87;;;;;;;16.62;100.00;100432.00;4902121;29;20355;-94
2023/07/01 03:45:54;;;;;;;4.03;2.17;;;;;;;16.63;100.00;100427.38;4897711;29;20032;-95
2023/07/01 03:48:19;;;;;;;6.10;1.97;;;;;;;16.62;100.00;100423.88;4897856;29;20044;-94
2023/07/01 03:50:44;;;;;;;4.23;1.77;;;;;;;16.60;100.00;100428.78;4897188;29;20284;-94
2023/07/01 03:53:10;;;;;;;4.20;2.00;;;;;;;16.39;100.00;100420.38;4897778;29;20033;-94
2023/07/01 03:55:35;;;;;;;4.50;2.10;;;;;;;16.21;100.00;100424.84;4898044;29;20028;-96
2023/07/01 03:58:00;;;;;;;3.50;2.10;;;;;;;15.90;100.00;100428.25;4903064;29;20045;-96
2023/07/01 04:18:31;;;;;;;4.25;2.67;;;;;;;14.96;100.00;100355.56;4904037;29;20894;-93
2023/07/01 04:20:56;;;;;;;3.03;2.70;;;;;;;15.08;100.00;100380.16;4898038;29;20028;-94
2023/07/01 04:23:21;;;;;;;4.07;2.80;;;;;;;15.08;100.00;100376.66;4897776;29;20047;-96
2023/07/01 04:25:47;;;;;;;4.67;2.90;;;;;;;15.16;100.00;100392.16;4898261;29;20485;-95
2023/07/01 04:28:14;;;;;;;4.60;3.33;;;;;;;15.20;100.00;100408.56;4896916;29;20222;-96
2023/07/01 04:30:39;;;;;;;3.30;2.80;;;;;;;15.18;100.00;100389.16;4899730;29;20029;-96
2023/07/01 05:12:18;;;;;;;4.22;2.50;;;;;;;15.26;100.00;100340.69;4896382;29;20068;-96
2023/07/01 05:14:43;;;;;;;4.95;2.80;;;;;;;15.29;100.00;100342.78;4899108;29;20021;-96
2023/07/01 05:17:13;;;;;;;3.20;2.63;;;;;;;15.48;100.00;100365.34;4900893;29;20165;-96
2023/07/01 05:19:40;;;;;;;3.78;2.42;;;;;;;15.28;100.00;100334.97;4902034;29;20009;-96
2023/07/01 05:22:26;;;;;;;4.05;2.58;;;;;;;15.50;100.00;100357.75;4966822;23;20048;-96
2023/07/01 05:32:37;;;;;;;3.03;2.70;;;;;;;15.44;100.00;100319.25;5179929;23;20062;-96
2023/07/01 06:06:09;;;;;;;4.33;3.20;;;;;;;15.87;100.00;100345.09;5056105;23;20052;-96
2023/07/01 06:08:35;;;;;;;4.60;2.37;;;;;;;16.04;100.00;100347.94;4923149;29;20357;-96
2023/07/01 06:11:02;;;;;;;2.90;2.50;;;;;;;15.82;100.00;100299.25;4936784;29;20044;-96
2023/07/01 06:13:28;;;;;;;3.90;2.58;;;;;;;15.86;100.00;100302.97;4937733;29;20019;-96
2023/07/01 06:44:18;;;;;;;2.95;2.70;;;;;;;16.59;100.00;100291.19;4917842;29;20041;-96
2023/07/01 06:47:03;;;;;;;3.90;2.50;;;;;;;16.76;100.00;100312.88;4904979;29;20048;-96
2023/07/01 06:49:48;;;;;;;4.55;2.40;;;;;;;16.81;100.00;100323.56;4988649;23;20139;-96
2023/07/01 06:52:35;;;;;;;2.92;2.42;;;;;;;16.67;100.00;100301.22;4939752;29;20119;-96
2023/07/01 07:21:28;;;;;;;3.10;1.92;;;;;;;16.60;100.00;100281.97;5138592;23;20067;-96
2023/07/01 07:32:02;;;;;;;2.40;2.20;;;;;;;16.80;100.00;100305.72;5142622;23;20316;-96
2023/07/01 07:34:28;;;;;;;2.53;2.00;;;;;;;16.56;100.00;100275.56;4940777;29;20048;-96
2023/07/01 08:16:04;;;;;;;2.40;1.80;;;;;;;17.78;100.00;100290.47;4919242;29;20060;-96
2023/07/01 08:18:31;;;;;;;1.92;1.73;;;;;;;17.70;100.00;100276.63;4916752;29;20048;-96
2023/07/01 08:20:58;;;;;;;2.50;1.75;;;;;;;17.90;100.00;100285.19;4906131;29;20044;-96
2023/07/01 08:23:24;;;;;;;1.92;1.70;;;;;;;17.83;100.00;100277.56;4881636;29;20037;-96
2023/07/01 08:25:49;;;;;;;1.97;1.87;;;;;;;17.94;100.00;100294.28;4899582;29;20092;-96
2023/07/01 08:28:15;;;;;;;2.15;1.60;;;;;;;18.15;100.00;100297.16;4905123;29;20060;-96
2023/07/01 08:30:41;;;;;;;3.73;1.67;;;;;;;18.25;100.00;100287.91;4908183;29;20040;-96
2023/07/01 08:33:07;;;;;;;1.42;1.33;;;;;;;18.34;100.00;100277.03;4891763;29;20036;-96
2023/07/01 08:35:52;;;;;;;1.50;1.40;;;;;;;18.34;100.00;100273.50;4904481;29;20025;-94
2023/07/01 08:38:38;;;;;;;1.60;1.50;;;;;;;18.11;100.00;100289.97;5048756;23;20063;-93
2023/07/01 08:41:07;;;;;;;1.67;1.57;;;;;;;17.90;100.00;100274.34;4918095;29;20033;-91
2023/07/01 08:43:34;;;;;;;2.75;1.52;;;;;;;17.82;100.00;100300.34;4916075;29;20086;-92
2023/07/01 08:46:05;;;;;;;1.45;1.35;;;;;;;17.71;100.00;100294.44;4914748;29;20028;-92
2023/07/01 08:48:34;;;;;;;2.10;1.48;;;;;;;17.71;100.00;100291.75;4915426;29;20111;-92
2023/07/01 08:51:15;;;;;;;1.23;1.15;;;;;;;17.62;100.00;100290.97;4915677;29;20031;-91
2023/07/01 08:53:41;;;;;;;1.73;1.17;;;;;;;17.61;100.00;100294.78;4915278;29;20020;-94
2023/07/01 08:56:07;;;;;;;1.88;1.48;;;;;;;17.62;100.00;100276.63;4921154;29;20016;-92
2023/07/01 08:58:32;;;;;;;1.50;1.40;;;;;;;17.59;100.00;100274.56;4928168;29;20043;-94
2023/07/01 09:00:58;;;;;;;1.42;1.15;;;;;;;17.69;100.00;100269.63;4915610;29;20449;-92
2023/07/01 09:03:26;;;;;;;1.37;1.10;;;;;;;17.87;100.00;100280.44;4930158;29;20024;-93
2023/07/01 09:05:51;;;;;;;2.13;1.40;;;;;;;18.04;100.00;100289.69;4924300;29;20028;-93
2023/07/01 09:08:17;;;;;;;1.53;1.20;;;;;;;17.98;100.00;100281.72;4918214;29;20115;-91
2023/07/01 09:10:43;;;;;;;2.03;1.23;;;;;;;17.99;100.00;100282.50;4916131;29;20048;-93
2023/07/01 09:13:17;;;;;;;1.30;1.20;;;;;;;18.02;100.00;100295.41;4915294;29;20473;-92
2023/07/01 09:15:46;;;;;;;1.30;1.20;;;;;;;18.06;100.00;100288.25;4919145;29;20079;-91
2023/07/01 09:18:21;;;;;;;1.02;1.02;;;;;;;18.15;100.00;100293.66;4917629;29;20032;-93
2023/07/01 09:20:48;;;;;;;1.30;1.10;;;;;;;17.99;100.00;100282.50;4915096;29;20087;-92
2023/07/01 09:23:31;;;;;;;0.80;0.80;;;;;;;17.93;100.00;100268.31;4903086;29;20024;-94
2023/07/01 09:26:10;;;;;;;1.75;1.05;;;;;;;18.14;100.00;100287.44;4915814;29;20040;-93
2023/07/01 09:28:38;;;;;;;1.50;0.80;;;;;;;18.38;100.00;100282.59;4901777;29;20036;-93
2023/07/01 09:31:06;;;;;;;1.20;1.00;;;;;;;18.60;100.00;100274.22;4922113;29;20050;-94
2023/07/01 09:33:34;;;;;;;0.90;0.90;;;;;;;19.03;100.00;100287.91;4912865;29;20032;-92
2023/07/01 09:36:03;;;;;;;0.83;0.83;;;;;;;19.34;100.00;100275.91;4918814;29;20367;-93
2023/07/01 09:38:33;;;;;;;1.00;0.90;;;;;;;19.77;100.00;100284.84;4918943;29;20036;-93
2023/07/01 09:41:17;;;;;;;1.20;0.88;;;;;;;20.18;100.00;100274.22;4901680;29;20498;-91
2023/07/01 09:43:43;;;;;;;1.88;0.90;;;;;;;20.11;100.00;100272.84;4922726;29;20036;-93
2023/07/01 09:46:08;;;;;;;0.90;0.82;;;;;;;20.02;100.00;100269.44;4918699;29;20072;-92
2023/07/01 09:48:34;;;;;;;1.43;1.03;;;;;;;20.13;100.00;100278.75;4921504;29;20362;-92
2023/07/01 09:51:06;;;;;;;1.65;1.00;;;;;;;19.96;100.00;100259.91;4915052;29;20709;-92
2023/07/01 09:53:35;;;;;;;0.70;0.70;;;;;;;20.00;100.00;100281.75;4925002;29;20064;-92
2023/07/01 09:56:03;;;;;;;1.00;1.00;;;;;;;19.96;100.00;100278.94;4919433;29;20280;-93
2023/07/01 09:58:33;;;;;;;0.80;0.80;;;;;;;19.93;100.00;100271.44;4922249;29;20036;-91
2023/07/01 10:01:02;;;;;;;1.20;1.10;;;;;;;19.96;100.00;100285.19;4920617;29;20511;-91
2023/07/01 10:03:28;;;;;;;1.77;1.10;;;;;;;19.74;100.00;100267.25;4921126;29;20036;-92
2023/07/01 10:05:54;;;;;;;1.20;1.10;;;;;;;19.64;100.00;100281.28;4920484;29;20071;-91
2023/07/01 10:08:20;;;;;;;1.45;1.35;;;;;;;19.78;100.00;100284.50;4922003;29;20061;-92
2023/07/01 10:10:58;;;;;;;1.52;1.40;;;;;;;20.24;100.00;100281.06;4907161;29;20032;-92
2023/07/01 10:13:24;;;;;;;1.17;1.10;;;;;;;20.56;100.00;100273.16;4920318;29;20016;-91
2023/07/01 10:15:50;;;;;;;1.40;1.30;;;;;;;20.77;100.00;100269.56;4922972;29;20273;-90
2023/07/01 10:18:22;;;;;;;1.27;1.17;;;;;;;20.70;100.00;100257.28;4941134;29;20047;-92
2023/07/01 10:20:50;;;;;;;1.42;1.33;;;;;;;20.61;100.00;100269.41;4922188;29;20477;-90
2023/07/01 10:23:15;;;;;;;1.57;0.87;;;;;;;20.42;100.00;100265.31;4932445;29;20033;-92
2023/07/01 10:25:41;;;;;;;1.33;1.10;;;;;;;20.49;100.00;100262.84;4935414;29;20284;-93
2023/07/01 10:28:08;;;;;;;4.55;1.30;;;;;;;20.49;100.00;100262.03;4923118;29;20052;-90
2023/07/01 10:30:45;;;;;;;1.38;1.30;;;;;;;20.60;100.00;100270.53;4924490;29;20382;-91
2023/07/01 10:33:30;;;;;;;1.45;1.35;;;;;;;20.65;100.00;100264.88;4907128;29;20043;-93
2023/07/01 10:36:09;;;;;;;2.07;1.20;;;;;;;20.63;100.00;100264.44;4926183;29;20141;-92
2023/07/01 10:38:37;;;;;;;1.50;1.40;;;;;;;20.41;100.00;100261.00;4922952;29;20284;-91
2023/07/01 10:41:02;;;;;;;2.08;1.45;;;;;;;20.25;100.00;100252.72;4925287;29;20481;-91
2023/07/01 10:43:29;;;;;;;3.95;1.65;;;;;;;20.43;100.00;100267.72;4918394;29;20113;-92
2023/07/01 10:46:07;;;;;;;2.03;1.85;;;;;;;20.81;100.00;100267.75;4916871;29;20035;-92
2023/07/01 10:48:36;;;;;;;1.65;1.55;;;;;;;21.04;100.00;100262.63;4917690;29;20056;-92
2023/07/01 10:51:06;;;;;;;1.88;1.77;;;;;;;21.25;100.00;100262.47;4918275;29;20115;-93
2023/07/01 10:53:51;;;;;;;1.90;1.80;;;;;;;21.21;100.00;100239.78;4918013;29;20433;-93
2023/07/01 10:56:17;;;;;;;4.82;2.17;;;;;;;21.42;100.00;100249.69;4917359;29;20119;-92
2023/07/01 10:58:43;;;;;;;2.20;2.00;;;;;;;21.57;100.00;100262.59;4917158;29;20068;-93
2023/07/01 11:01:28;;;;;;;2.47;2.30;;;;;;;21.65;100.00;100262.84;4918144;29;20039;-93
2023/07/01 11:03:54;;;;;;;3.60;2.40;;;;;;;21.75;100.00;100273.22;4916974;29;20539;-93
2023/07/01 11:06:19;;;;;;;2.13;2.03;;;;;;;21.89;100.00;100270.91;4916863;29;20288;-93
2023/07/01 11:08:47;;;;;;;2.43;2.23;;;;;;;22.01;100.00;100256.41;4917224;29;20365;-93
2023/07/01 11:11:18;;;;;;;2.78;2.10;;;;;;;22.48;100.00;100268.50;4917657;29;20038;-94
2023/07/01 11:14:08;;;;;;;2.50;2.30;;;;;;;22.79;100.00;100272.38;4916243;29;20040;-94
2023/07/01 11:16:34;;;;;;;3.88;2.50;;;;;;;23.29;100.00;100264.50;4915881;29;20402;-94
2023/07/01 11:19:05;;;;;;;3.05;2.42;;;;;;;23.75;99.06;100263.84;4916340;29;20064;-95
2023/07/01 11:21:31;;;;;;;2.70;2.50;;;;;;;23.98;93.20;100271.34;4916011;29;20554;-92
2023/07/01 11:23:58;;;;;;;2.60;2.40;;;;;;;23.85;94.63;100267.94;4907822;29;20016;-94
2023/07/01 11:26:34;;;;;;;4.45;2.65;;;;;;;23.56;94.86;100261.13;4924056;29;20059;-94
2023/07/01 11:29:01;;;;;;;2.67;2.47;;;;;;;23.70;95.65;100244.22;4913150;29;20028;-94
2023/07/01 11:31:32;;;;;;;2.47;2.30;;;;;;;24.28;95.66;100251.56;4899377;29;20822;-95
2023/07/01 11:33:58;;;;;;;2.45;2.30;;;;;;;24.15;92.12;100233.72;4915260;29;20086;-94
2023/07/01 11:36:35;;;;;;;2.70;2.50;;;;;;;24.13;92.86;100250.50;4920487;29;20015;-94
2023/07/01 11:39:09;;;;;;;3.10;2.80;;;;;;;24.10;92.50;100258.66;4934029;29;20051;-95
2023/07/01 11:41:36;;;;;;;2.80;2.60;;;;;;;24.10;90.31;100225.84;4900576;29;21061;-94
2023/07/01 11:44:06;;;;;;;2.53;2.33;;;;;;;24.55;89.44;100248.06;4932672;29;20024;-94
2023/07/01 11:46:35;;;;;;;5.55;2.50;;;;;;;24.38;88.67;100224.72;4930933;29;20036;-94
2023/07/01 11:49:15;;;;;;;5.35;2.40;;;;;;;24.33;88.68;100239.50;4903294;29;20046;-93
2023/07/01 11:51:46;;;;;;;2.17;2.08;;;;;;;23.82;89.99;100241.34;4898864;29;20024;-94
2023/07/01 11:54:12;;;;;;;1.80;1.70;;;;;;;23.48;92.17;100232.88;4899681;29;20028;-93
2023/07/01 11:56:38;;;;;;;2.73;2.27;;;;;;;23.20;93.64;100235.78;4916654;29;20288;-94
2023/07/01 11:59:03;;;;;;;1.90;1.80;;;;;;;23.14;94.99;100254.41;4920318;29;20107;-94
2023/07/01 12:01:29;;;;;;;1.90;1.80;;;;;;;22.82;94.37;100219.75;4899803;29;20055;-94
2023/07/01 12:03:55;;;;;;;2.22;2.03;;;;;;;22.64;95.82;100254.88;4900357;29;20032;-94
2023/07/01 12:06:24;;;;;;;2.10;2.00;;;;;;;22.45;97.44;100250.13;4898381;29;20032;-95
2023/07/01 12:08:55;;;;;;;3.00;2.17;;;;;;;22.51;98.61;100229.59;4899437;29;20071;-94
2023/07/01 12:11:23;;;;;;;2.55;2.30;;;;;;;22.71;96.81;100234.34;4899630;29;20505;-96
2023/07/01 12:13:50;;;;;;;2.33;2.20;;;;;;;22.90;95.49;100237.13;4916744;29;20043;-94
2023/07/01 12:16:16;;;;;;;2.13;1.98;;;;;;;22.94;93.39;100224.31;4917330;29;20036;-95
2023/07/01 12:18:42;;;;;;;2.70;2.20;;;;;;;23.01;93.56;100240.06;4918605;29;20031;-95
2023/07/01 12:21:08;;;;;;;2.80;2.43;;;;;;;23.14;93.86;100268.06;4902920;29;20028;-94
2023/07/01 12:23:41;;;;;;;3.15;2.95;;;;;;;23.18;93.10;100259.97;4916474;29;20396;-94
2023/07/01 12:26:06;;;;;;;4.20;3.30;;;;;;;22.63;91.20;100227.94;4899725;29;20090;-94
2023/07/01 12:28:32;;;;;;;3.57;3.37;;;;;;;22.21;98.63;100243.69;4916409;29;20032;-94
2023/07/01 12:30:57;;;;;;;5.03;4.18;;;;;;;21.90;100.00;100223.41;4915051;29;20032;-94
2023/07/01 12:33:23;;;;;;;3.67;3.37;;;;;;;22.14;100.00;100254.41;4916393;29;20094;-93
2023/07/01 12:38:23;;;;;;;7.00;5.25;;;;;;;21.54;100.00;100271.47;4882781;27;20057;-92
2023/07/01 12:40:50;;;;;;;6.90;6.30;;;;;;;20.91;100.00;100261.84;4898473;29;20033;-91
2023/07/01 12:43:15;;;;;;;7.43;6.73;;;;;;;20.57;100.00;100266.59;4899515;29;20024;-93
2023/07/01 12:45:40;;;;;;;8.02;7.28;;;;;;;20.52;100.00;100274.97;4881525;29;20028;-92
2023/07/01 12:48:06;;;;;;;10.80;7.30;;;;;;;20.49;100.00;100265.56;4898148;29;20043;-92
2023/07/01 12:50:32;;;;;;;7.60;6.90;;;;;;;20.37;100.00;100249.22;4878421;29;20437;-93
2023/07/01 12:52:58;;;;;;;7.05;6.35;;;;;;;20.37;100.00;100266.34;4893524;29;20025;-93
2023/07/01 12:55:23;;;;;;;5.90;5.40;;;;;;;20.31;100.00;100253.28;4879149;29;20035;-93
2023/07/01 12:57:49;;;;;;;6.10;5.50;;;;;;;20.43;100.00;100267.72;4910284;29;20069;-93
2023/07/01 13:00:15;;;;;;;5.00;4.50;;;;;;;20.58;100.00;100279.84;4903685;29;20079;-93
2023/07/01 13:02:45;;;;;;;4.53;4.13;;;;;;;20.52;100.00;100275.78;4901959;29;20084;-93
2023/07/01 13:05:15;;;;;;;4.93;4.53;;;;;;;20.47;100.00;100277.91;4912907;29;20025;-92
2023/07/01 13:07:40;;;;;;;7.88;5.43;;;;;;;20.45;100.00;100270.09;4897732;29;20025;-92
2023/07/01 13:10:08;;;;;;;6.10;5.10;;;;;;;20.51;100.00;100285.06;4897947;29;20029;-91
2023/07/01 13:12:35;;;;;;;6.07;4.60;;;;;;;20.42;100.00;100296.06;4901958;29;20028;-92
2023/07/01 13:15:05;;;;;;;6.63;4.25;;;;;;;20.16;100.00;100309.13;4890556;29;20061;-92
2023/07/01 13:17:35;;;;;;;5.05;4.55;;;;;;;19.70;100.00;100322.63;4898646;29;20025;-91
2023/07/01 13:20:01;;;;;;;5.03;4.45;;;;;;;19.30;100.00;100304.84;4897462;29;20088;-91
2023/07/01 13:22:26;;;;;;;5.07;4.00;;;;;;;19.26;100.00;100321.03;4899265;29;20028;-91
2023/07/01 13:24:51;;;;;;;4.87;3.97;;;;;;;19.11;100.00;100303.38;4896063;29;20031;-91
2023/07/01 13:27:17;;;;;;;6.10;3.83;;;;;;;19.11;100.00;100321.56;4895461;29;20481;-91
2023/07/01 13:29:42;;;;;;;4.95;4.30;;;;;;;19.24;100.00;100314.31;4893566;29;20024;-90
2023/07/01 13:32:08;;;;;;;6.10;4.20;;;;;;;19.21;100.00;100291.34;4896112;29;20717;-91
2023/07/01 13:34:40;;;;;;;7.45;4.78;;;;;;;19.61;100.00;100325.41;4896129;29;20481;-90
2023/07/01 13:37:06;;;;;;;4.67;4.17;;;;;;;19.55;100.00;100291.41;4897368;29;20048;-92
2023/07/01 13:39:40;;;;;;;5.20;4.20;;;;;;;19.76;100.00;100324.81;4897622;29;20076;-92
2023/07/01 13:42:06;;;;;;;4.57;3.65;;;;;;;19.70;100.00;100311.75;4897813;29;20032;-91
2023/07/01 13:44:36;;;;;;;5.20;4.00;;;;;;;19.73;100.00;100320.03;4900418;29;20219;-90
2023/07/01 13:47:02;;;;;;;5.32;4.35;;;;;;;19.80;100.00;100316.81;4901200;29;20374;-92
2023/07/01 13:49:29;;;;;;;4.78;3.72;;;;;;;19.93;100.00;100304.06;4904304;29;20052;-91
2023/07/01 13:51:55;;;;;;;4.50;3.80;;;;;;;20.04;100.00;100315.31;4904631;29;20039;-92
2023/07/01 13:54:23;;;;;;;6.75;4.38;;;;;;;19.93;100.00;100328.53;4902673;29;20027;-91
2023/07/01 13:56:53;;;;;;;4.60;3.97;;;;;;;19.67;100.00;100321.38;4905135;29;20036;-92
2023/07/01 13:59:20;;;;;;;5.53;4.18;;;;;;;19.42;100.00;100298.72;4887289;29;20061;-91
2023/07/01 14:01:59;;;;;;;6.30;4.43;;;;;;;19.60;100.00;100329.25;4903587;29;20024;-92
2023/07/01 14:04:25;;;;;;;6.82;4.53;;;;;;;19.68;100.00;100310.16;4903744;29;20067;-92
2023/07/01 14:06:53;;;;;;;6.43;4.80;;;;;;;19.97;100.00;100316.69;4901683;29;20029;-92
2023/07/01 14:09:21;;;;;;;7.72;5.05;;;;;;;20.11;100.00;100319.09;4902642;29;20039;-92
2023/07/01 14:11:46;;;;;;;4.78;4.20;;;;;;;20.26;100.00;100304.06;4899931;29;20032;-92
2023/07/01 14:14:18;;;;;;;6.20;4.40;;;;;;;20.56;100.00;100319.44;4900255;29;20032;-92
2023/07/01 14:16:44;;;;;;;7.35;4.18;;;;;;;20.65;100.00;100322.81;4910100;29;20013;-93
2023/07/01 14:19:10;;;;;;;8.50;4.70;;;;;;;20.54;100.00;100316.25;4915112;29;20025;-92
2023/07/01 14:21:38;;;;;;;7.57;4.95;;;;;;;20.62;100.00;100334.41;4903445;29;20410;-93
2023/07/01 14:24:04;;;;;;;7.55;5.18;;;;;;;20.50;100.00;100332.47;4915226;29;20025;-93
2023/07/01 14:26:31;;;;;;;9.82;5.65;;;;;;;20.37;100.00;100326.19;4906451;29;20032;-92
2023/07/01 14:29:03;;;;;;;6.10;4.90;;;;;;;20.13;100.00;100330.44;4895941;29;20044;-93
2023/07/01 14:31:32;;;;;;;6.77;5.10;;;;;;;19.78;100.00;100336.13;4901133;29;20039;-92
2023/07/01 14:34:00;;;;;;;8.90;5.70;;;;;;;19.44;100.00;100334.50;4903913;29;20343;-90
2023/07/01 14:36:30;;;;;;;5.93;5.30;;;;;;;19.13;100.00;100350.00;4900106;29;20128;-91
2023/07/01 14:38:56;;;;;;;6.80;5.82;;;;;;;18.75;100.00;100334.50;4901976;29;20052;-92
2023/07/01 14:41:23;;;;;;;12.45;6.20;;;;;;;18.85;100.00;100350.41;4901887;29;20040;-93
2023/07/01 14:43:54;;;;;;;11.50;6.38;;;;;;;18.92;100.00;100339.84;4899588;29;20028;-93